createdAt,value
2022-09-28T00:01:05.252Z,97087.27
2022-09-28T00:04:46.270Z,97094.47
2022-09-28T00:08:34.122Z,97101.52
2022-09-28T00:12:22.322Z,97095.98
2022-09-28T00:15:49.452Z,97093.66
2022-09-28T00:19:39.849Z,97093.13
2022-09-28T00:23:12.686Z,97090.38
2022-09-28T00:27:02.108Z,97089.03
2022-09-28T00:30:49.924Z,97092.52
2022-09-28T00:34:37.580Z,97086.55
2022-09-28T00:38:04.912Z,97083.71
2022-09-28T00:41:52.512Z,97080.92
2022-09-28T00:45:40.372Z,97079.96
2022-09-28T00:49:19.072Z,97084.52
2022-09-28T00:53:06.855Z,97077.00
2022-09-28T00:56:39.224Z,97080.88
2022-09-28T01:00:27.238Z,97087.43
2022-09-28T01:04:14.362Z,97094.73
2022-09-28T01:08:03.563Z,97097.73
2022-09-28T01:11:50.417Z,97100.48
2022-09-28T01:15:38.109Z,97098.66
2022-09-28T01:19:31.677Z,97097.36
2022-09-28T01:23:35.264Z,97093.98
2022-09-28T01:27:08.220Z,97092.31
2022-09-28T01:30:56.005Z,97097.85
2022-09-28T01:33:54.453Z,97102.33
2022-09-28T01:37:44.484Z,97104.91
2022-09-28T01:41:18.199Z,97111.23
2022-09-28T01:44:53.039Z,97111.61
2022-09-28T01:48:14.458Z,97109.25
2022-09-28T01:51:22.717Z,97105.92
2022-09-28T01:55:13.493Z,97106.77
2022-09-28T01:59:03.081Z,97111.45
2022-09-28T02:02:55.914Z,97112.18
2022-09-28T02:06:23.489Z,97115.56
2022-09-28T02:10:13.251Z,97118.73
2022-09-28T02:14:15.725Z,97122.81
2022-09-28T02:18:03.892Z,97121.46
2022-09-28T02:22:03.476Z,97120.02
2022-09-28T02:25:54.365Z,97120.55
2022-09-28T02:28:49.223Z,97126.31
2022-09-28T02:31:16.344Z,97128.23
2022-09-28T02:33:50.310Z,97132.64
2022-09-28T02:36:29.435Z,97134.89
2022-09-28T02:39:02.064Z,97132.21
2022-09-28T02:42:33.421Z,97139.40
2022-09-28T02:46:30.757Z,97145.42
2022-09-28T02:50:22.969Z,97147.29
2022-09-28T02:54:13.412Z,97147.02
2022-09-28T02:57:59.969Z,97140.27
2022-09-28T03:01:22.594Z,97136.27
2022-09-28T03:04:15.056Z,97129.72
2022-09-28T03:07:07.301Z,97127.99
2022-09-28T03:09:43.856Z,97127.77
2022-09-28T03:12:16.199Z,97128.55
2022-09-28T03:14:44.547Z,97134.48
2022-09-28T03:17:11.516Z,97138.45
2022-09-28T03:19:38.867Z,97137.86
2022-09-28T03:22:11.457Z,97142.86
2022-09-28T03:24:38.868Z,97143.30
2022-09-28T03:27:07.697Z,97137.38
2022-09-28T03:29:35.336Z,97136.69
2022-09-28T03:32:05.845Z,97135.45
2022-09-28T03:34:32.885Z,97126.06
2022-09-28T03:36:59.997Z,97128.63
2022-09-28T03:39:26.983Z,97125.63
2022-09-28T03:41:54.027Z,97130.74
2022-09-28T03:44:21.295Z,97137.98
2022-09-28T03:46:50.664Z,97143.20
2022-09-28T03:49:17.717Z,97148.14
2022-09-28T03:51:47.226Z,97150.72
2022-09-28T03:54:17.076Z,97149.93
2022-09-28T03:56:44.299Z,97149.30
2022-09-28T03:59:15.128Z,97150.80
2022-09-28T04:01:44.868Z,97153.66
2022-09-28T04:04:15.371Z,97152.75
2022-09-28T04:06:42.352Z,97149.27
2022-09-28T04:09:10.284Z,97157.76
2022-09-28T04:12:02.325Z,97161.99
2022-09-28T04:14:30.229Z,97160.88
2022-09-28T04:16:57.162Z,97161.24
2022-09-28T04:19:26.415Z,97167.90
2022-09-28T04:22:12.119Z,97176.42
2022-09-28T04:24:43.152Z,97181.60
2022-09-28T04:27:28.327Z,97180.68
2022-09-28T04:29:55.638Z,97183.16
2022-09-28T04:32:23.203Z,97185.61
2022-09-28T04:35:14.248Z,97177.35
2022-09-28T04:51:04.309Z,97178.81
2022-09-28T04:53:51.412Z,97182.11
2022-09-28T04:56:50.318Z,97183.13
2022-09-28T04:59:23.661Z,97185.98
2022-09-28T05:02:11.470Z,97188.09
2022-09-28T05:05:19.701Z,97185.60
2022-09-28T05:08:06.136Z,97196.83
2022-09-28T05:10:36.034Z,97202.36
2022-09-28T05:13:13.253Z,97206.18
2022-09-28T05:15:42.389Z,97203.34
2022-09-28T05:18:22.084Z,97202.42
2022-09-28T05:21:13.256Z,97201.04
2022-09-28T05:23:45.699Z,97201.41
2022-09-28T05:26:13.321Z,97203.82
2022-09-28T05:29:07.538Z,97210.85
2022-09-28T05:35:23.509Z,97217.98
2022-09-28T05:45:54.262Z,97235.90
2022-09-28T05:48:59.853Z,97234.09
2022-09-28T05:55:28.767Z,97232.60
2022-09-28T05:57:59.813Z,97228.67
2022-09-28T06:09:55.278Z,97223.88
2022-09-28T06:55:21.476Z,97211.83
2022-09-28T06:58:54.173Z,97206.40
2022-09-28T07:01:22.002Z,97210.56
2022-09-28T07:04:21.141Z,97210.87
2022-09-28T07:50:38.232Z,97223.95
2022-09-28T07:54:14.521Z,97221.70
2022-09-28T07:57:07.905Z,97221.23
2022-09-28T08:00:28.916Z,97222.63
2022-09-28T08:03:02.131Z,97218.48
2022-09-28T08:05:51.811Z,97215.83
2022-09-28T08:08:30.703Z,97216.61
2022-09-28T08:11:23.438Z,97223.63
2022-09-28T08:14:37.424Z,97222.65
2022-09-28T08:18:23.701Z,97220.29
2022-09-28T08:21:12.164Z,97217.27
2022-09-28T08:24:02.561Z,97213.67
2022-09-28T08:26:32.864Z,97210.01
2022-09-28T08:29:33.432Z,97210.76
2022-09-28T08:32:26.119Z,97211.98
2022-09-28T08:36:20.021Z,97209.55
2022-09-28T08:39:17.893Z,97217.20
2022-09-28T08:42:45.061Z,97218.33
2022-09-28T08:47:15.875Z,97216.34
2022-09-28T08:50:37.859Z,97208.33
2022-09-28T08:53:35.353Z,97205.29
2022-09-28T08:57:09.893Z,97201.72
2022-09-28T08:59:56.794Z,97206.63
2022-09-28T09:06:45.600Z,97210.02
2022-09-28T09:10:19.711Z,97205.10
2022-09-28T09:13:41.298Z,97206.08
2022-09-28T09:16:40.437Z,97208.27
2022-09-28T09:19:46.707Z,97209.39
2022-09-28T09:23:24.967Z,97204.64
2022-09-28T09:30:17.493Z,97197.52
2022-09-28T09:33:24.922Z,97195.13
2022-09-28T10:30:44.448Z,97195.90
2022-09-28T10:33:33.869Z,97206.36
2022-09-28T10:36:07.196Z,97201.32
2022-09-28T10:38:35.649Z,97198.74
2022-09-28T10:41:16.723Z,97198.70
2022-09-28T10:44:08.372Z,97199.34
2022-09-28T10:46:42.954Z,97200.98
2022-09-28T10:49:18.770Z,97201.34
2022-09-28T10:51:58.557Z,97206.48
2022-09-28T10:54:53.763Z,97201.77
2022-09-28T10:57:37.068Z,97202.08
2022-09-28T11:00:32.876Z,97205.98
2022-09-28T11:03:26.118Z,97205.28
2022-09-28T11:06:03.055Z,97201.36
2022-09-28T11:08:52.180Z,97193.88
2022-09-28T11:11:20.676Z,97188.41
2022-09-28T11:14:04.016Z,97189.81
2022-09-28T11:16:36.732Z,97186.86
2022-09-28T11:19:20.991Z,97192.16
2022-09-28T11:21:49.566Z,97189.23
2022-09-28T11:24:20.568Z,97188.23
2022-09-28T11:26:56.737Z,97189.58
2022-09-28T11:29:45.861Z,97195.05
2022-09-28T11:32:30.934Z,97196.74
2022-09-28T11:35:32.322Z,97199.80
2022-09-28T11:38:28.784Z,97199.29
2022-09-28T11:41:58.884Z,97203.55
2022-09-28T11:44:38.645Z,97209.13
2022-09-28T11:47:55.430Z,97209.98
2022-09-28T11:50:50.774Z,97212.45
2022-09-28T11:53:41.928Z,97211.52
2022-09-28T11:56:20.005Z,97213.49
2022-09-28T11:58:54.052Z,97218.77
2022-09-28T12:01:44.290Z,97212.77
2022-09-28T12:04:53.030Z,97209.58
2022-09-28T12:08:04.008Z,97205.95
2022-09-28T12:11:15.853Z,97209.19
2022-09-28T12:14:07.165Z,97211.95
2022-09-28T12:17:07.738Z,97210.53
2022-09-28T12:19:49.097Z,97199.81
2022-09-28T12:22:33.276Z,97195.70
2022-09-28T12:25:04.247Z,97195.18
2022-09-28T12:28:07.292Z,97194.65
2022-09-28T12:30:40.997Z,97192.30
2022-09-28T12:33:16.101Z,97191.65
2022-09-28T12:36:02.677Z,97195.59
2022-09-28T12:39:15.096Z,97187.88
2022-09-28T12:42:18.372Z,97187.73
2022-09-28T12:45:00.397Z,97191.23
2022-09-28T12:47:40.946Z,97190.11
2022-09-28T12:50:56.074Z,97192.58
2022-09-28T12:53:44.143Z,97196.97
2022-09-28T12:59:53.188Z,97194.50
2022-09-28T13:02:59.959Z,97198.34
2022-09-28T13:05:58.096Z,97205.15
2022-09-28T13:08:39.243Z,97201.41
2022-09-28T13:11:35.386Z,97203.14
2022-09-28T13:14:29.451Z,97201.08
2022-09-28T13:17:00.908Z,97202.33
2022-09-28T13:19:55.130Z,97204.17
2022-09-28T13:22:44.135Z,97202.40
2022-09-28T13:25:19.221Z,97196.11
2022-09-28T13:28:03.468Z,97199.60
2022-09-28T13:30:35.840Z,97202.10
2022-09-28T13:33:08.857Z,97202.20
2022-09-28T13:35:43.595Z,97200.23
2022-09-28T13:38:16.446Z,97208.86
2022-09-28T13:41:06.342Z,97213.46
2022-09-28T13:44:13.898Z,97212.02
2022-09-28T13:47:00.405Z,97214.84
2022-09-28T13:49:45.728Z,97215.37
2022-09-28T13:52:48.204Z,97214.83
2022-09-28T13:55:33.122Z,97212.65
2022-09-28T13:58:05.967Z,97211.90
2022-09-28T14:00:57.896Z,97221.77
2022-09-28T14:03:37.139Z,97219.75
2022-09-28T14:06:25.694Z,97218.09
2022-09-28T14:09:29.173Z,97223.36
2022-09-28T14:12:24.173Z,97224.50
2022-09-28T14:14:52.950Z,97233.95
2022-09-28T14:17:20.952Z,97236.14
2022-09-28T14:20:07.867Z,97234.27
2022-09-28T14:23:00.945Z,97234.42
2022-09-28T14:26:04.180Z,97240.48
2022-09-28T14:41:17.652Z,97242.30
2022-09-28T14:43:51.013Z,97242.32
2022-09-28T14:50:38.073Z,97238.80
2022-09-28T14:53:12.437Z,97244.49
2022-09-28T15:04:28.218Z,97255.45
2022-09-28T15:12:06.172Z,97259.60
2022-09-28T15:18:54.790Z,97258.27
2022-09-28T15:22:03.509Z,97263.44
2022-09-28T15:28:19.441Z,97269.23
2022-09-28T15:30:48.436Z,97268.66
2022-09-28T15:33:50.323Z,97272.52
2022-09-28T15:36:29.387Z,97283.10
2022-09-28T15:39:23.611Z,97281.36
2022-09-28T15:41:52.904Z,97276.23
2022-09-28T16:04:05.337Z,97275.11
2022-09-28T16:06:38.769Z,97271.17
2022-09-28T16:09:34.578Z,97273.02
2022-09-28T16:15:39.625Z,97279.42
2022-09-28T16:18:24.300Z,97276.38
2022-09-28T17:06:16.972Z,97340.31
2022-09-28T17:13:33.880Z,97336.33
2022-09-28T17:17:02.686Z,97335.79
2022-09-28T17:21:04.522Z,97329.98
2022-09-28T17:42:33.658Z,97346.40
2022-09-28T17:45:05.817Z,97347.61
2022-09-28T17:54:34.719Z,97348.13
2022-09-28T17:57:42.312Z,97351.43
2022-09-28T18:13:17.360Z,97357.36
2022-09-28T18:19:45.440Z,97354.51
2022-09-28T18:37:17.014Z,97346.16
2022-09-28T18:40:58.884Z,97350.33
2022-09-28T18:49:26.586Z,97345.57
2022-09-28T18:52:19.109Z,97352.32
2022-09-28T18:54:51.756Z,97356.02
2022-09-28T18:57:55.898Z,97366.84
2022-09-28T19:01:28.294Z,97373.23
2022-09-28T19:04:27.924Z,97370.58
2022-09-28T19:07:22.065Z,97373.53
2022-09-28T19:09:50.961Z,97378.41
2022-09-28T19:12:57.565Z,97386.46
2022-09-28T19:28:01.576Z,97404.48
2022-09-28T19:30:29.960Z,97409.84
2022-09-28T19:32:58.262Z,97410.98
2022-09-28T19:35:26.480Z,97410.34
2022-09-28T19:37:55.948Z,97411.76
2022-09-28T19:40:26.735Z,97412.89
2022-09-28T19:42:55.295Z,97407.84
2022-09-28T19:45:23.791Z,97406.98
2022-09-28T19:47:57.297Z,97407.75
2022-09-28T19:50:28.269Z,97409.42
2022-09-28T19:53:01.865Z,97412.72
2022-09-28T19:55:35.767Z,97415.63
2022-09-28T19:58:04.242Z,97416.38
2022-09-28T20:00:33.855Z,97418.75
2022-09-28T20:03:04.084Z,97421.34
2022-09-28T20:05:32.545Z,97420.09
2022-09-28T20:12:46.619Z,97425.48
2022-09-28T20:15:56.938Z,97425.41
2022-09-28T20:18:45.611Z,97430.05
2022-09-28T20:21:17.931Z,97426.61
2022-09-28T20:23:48.303Z,97428.55
2022-09-28T20:26:18.094Z,97430.97
2022-09-28T20:28:46.996Z,97432.73
2022-09-28T20:31:22.979Z,97433.87
2022-09-28T20:33:53.524Z,97436.45
2022-09-28T20:36:25.574Z,97438.52
2022-09-28T20:38:55.041Z,97440.83
2022-09-28T20:41:33.091Z,97443.63
2022-09-28T20:44:30.705Z,97452.40
2022-09-28T20:47:59.848Z,97463.05
2022-09-28T20:50:35.250Z,97471.23
2022-09-28T20:53:29.509Z,97466.40
2022-09-28T20:56:00.310Z,97460.85
2022-09-28T20:58:50.247Z,97455.95
2022-09-28T21:01:45.331Z,97459.88
2022-09-28T21:04:13.788Z,97466.07
2022-09-28T21:06:44.486Z,97462.67
2022-09-28T21:09:13.187Z,97462.56
2022-09-28T21:11:44.625Z,97452.55
2022-09-28T21:14:15.606Z,97450.39
2022-09-28T21:17:05.471Z,97453.17
2022-09-28T21:19:38.936Z,97456.89
2022-09-28T21:22:08.843Z,97460.86
2022-09-28T21:25:33.089Z,97467.84
2022-09-28T21:29:30.525Z,97465.56
2022-09-28T21:33:44.870Z,97466.69
2022-09-28T21:36:54.635Z,97472.71
2022-09-28T21:40:22.296Z,97479.21
2022-09-28T21:43:11.301Z,97481.85
2022-09-28T21:45:55.288Z,97491.85
2022-09-28T21:48:37.733Z,97494.88
2022-09-28T21:51:20.217Z,97489.73
2022-09-28T21:54:03.946Z,97492.15
2022-09-28T21:56:47.903Z,97491.98
2022-09-28T21:59:31.347Z,97493.05
2022-09-28T22:02:06.819Z,97491.16
2022-09-28T22:04:34.980Z,97489.23
2022-09-28T22:07:06.033Z,97491.61
2022-09-28T22:09:36.040Z,97493.74
2022-09-28T22:12:24.420Z,97498.09
2022-09-28T22:14:52.480Z,97497.85
2022-09-28T22:17:40.660Z,97503.11
2022-09-28T22:20:09.438Z,97502.40
2022-09-28T22:22:38.574Z,97498.14
2022-09-28T22:25:06.891Z,97492.27
2022-09-28T22:27:35.022Z,97490.81
2022-09-28T22:30:06.640Z,97492.80
2022-09-28T22:32:35.275Z,97492.56
2022-09-28T22:35:05.003Z,97490.89
2022-09-28T22:37:33.697Z,97490.21
2022-09-28T22:40:02.102Z,97485.04
2022-09-28T22:42:30.179Z,97486.43
2022-09-28T22:44:58.253Z,97488.25
2022-09-28T22:47:26.446Z,97491.58
2022-09-28T22:49:54.672Z,97491.56
2022-09-28T22:52:22.953Z,97488.80
2022-09-28T22:54:54.440Z,97483.80
2022-09-28T22:57:24.689Z,97484.50
2022-09-28T22:59:52.760Z,97481.43
2022-09-28T23:02:23.883Z,97484.55
2022-09-28T23:04:52.051Z,97489.50
2022-09-28T23:07:20.152Z,97491.01
2022-09-28T23:09:48.290Z,97484.55
2022-09-28T23:12:16.431Z,97478.69
2022-09-28T23:14:44.669Z,97474.17
2022-09-28T23:17:12.831Z,97470.73
2022-09-28T23:19:41.148Z,97471.09
2022-09-28T23:22:10.645Z,97469.48
2022-09-28T23:24:38.762Z,97465.92
2022-09-28T23:27:08.018Z,97468.51
2022-09-28T23:29:36.502Z,97471.84
2022-09-28T23:32:04.593Z,97479.63
2022-09-28T23:34:32.729Z,97486.20
2022-09-28T23:37:00.749Z,97491.58
2022-09-28T23:39:28.774Z,97487.39
2022-09-28T23:41:59.133Z,97489.19
2022-09-28T23:44:31.786Z,97493.49
2022-09-28T23:47:00.327Z,97495.39
2022-09-28T23:49:29.791Z,97499.59
2022-09-28T23:51:57.794Z,97503.89
2022-09-28T23:54:25.888Z,97507.66
2022-09-28T23:56:53.923Z,97511.42
2022-09-28T23:59:21.828Z,97514.89
